This is the latest recevied weather packets stored in our database for station/object N5ZP. If no packets are shown the sender has not sent any weather packets the latest 10 day(s).
| Time | Temp. | Humidity | Pressure | Rain* | Wind** | Luminosity | Snow |
|---|---|---|---|---|---|---|---|
| 1777959363 | 23.33° C | 72% | 1002.4 hPa | 0 mm | - | 0 W/m² | - |
| 1777959059 | 23.33° C | 72% | 1002.2 hPa | 0 mm | - | 0 W/m² | - |
| 1777958756 | 23.33° C | 72% | 1002.2 hPa | 0 mm | - | 0 W/m² | - |
| 1777958454 | 23.33° C | 72% | 1002.1 hPa | 0 mm | - | 0 W/m² | - |
| 1777958150 | 23.33° C | 71% | 1002.1 hPa | 0 mm | - | 0 W/m² | - |
| 1777957848 | 23.33° C | 71% | 1002.1 hPa | 0 mm | - | 0 W/m² | - |
| 1777957546 | 23.89° C | 71% | 1002.2 hPa | 0 mm | - | 0 W/m² | - |
| 1777956940 | 23.89° C | 71% | 1002.2 hPa | 0 mm | - | 0 W/m² | - |
| 1777956637 | 23.89° C | 71% | 1002.2 hPa | 0 mm | - | 0 W/m² | - |
| 1777956335 | 23.89° C | 71% | 1002.2 hPa | 0 mm | - | 0 W/m² | - |
| 1777956031 | 23.89° C | 71% | 1002.3 hPa | 0 mm | - | 0 W/m² | - |
| 1777955727 | 23.89° C | 71% | 1002.3 hPa | 0 mm | - | 0 W/m² | - |
| 1777955424 | 23.89° C | 71% | 1002.2 hPa | 0 mm | - | 0 W/m² | - |
| 1777955120 | 23.89° C | 71% | 1002.3 hPa | 0 mm | - | 0 W/m² | - |
| 1777954818 | 23.89° C | 71% | 1002.2 hPa | 0 mm | - | 0 W/m² | - |
| 1777954514 | 23.33° C | 72% | 1002.3 hPa | 0 mm | - | 0 W/m² | - |
| 1777954212 | 23.33° C | 72% | 1002.3 hPa | 0 mm | - | 0 W/m² | - |
| 1777953909 | 23.33° C | 72% | 1002.3 hPa | 0 mm | - | 0 W/m² | - |
| 1777941480 | 25° C | 65% | 1002.3 hPa | 0 mm | - | 24 W/m² | - |
| 1777934207 | 27.78° C | 56% | 1003.1 hPa | 0 mm | - | 181 W/m² | - |
| 1777932994 | 27.78° C | 56% | 1003.3 hPa | 0 mm | - | 298 W/m² | - |
| 1777932691 | 27.78° C | 56% | 1003 hPa | 0 mm | - | 325 W/m² | - |
| 1777931781 | 28.33° C | 56% | 1003.4 hPa | 0 mm | - | 353 W/m² | - |
| 1777929960 | 28.33° C | 56% | 1003.6 hPa | 0 mm | - | 309 W/m² | - |
| 1777929051 | 28.33° C | 55% | 1004 hPa | 0 mm | - | 341 W/m² | - |
* Rain latest hour (hover to see other rain measurements)
** Current wind speed in m/s (hover to see current wind gust speed)